sensor_id;sensor_type;location;lat;lon;timestamp;P1;durP1;ratioP1;P2;durP2;ratioP2
2488;SDS011;1255;48.716;9.124;2023-11-21T00:01:17;1.38;;;1.27;;
2488;SDS011;1255;48.716;9.124;2023-11-21T00:03:43;6.80;;;1.73;;
2488;SDS011;1255;48.716;9.124;2023-11-21T00:06:10;4.03;;;1.88;;
2488;SDS011;1255;48.716;9.124;2023-11-21T00:08:37;3.95;;;2.15;;
2488;SDS011;1255;48.716;9.124;2023-11-21T00:11:04;7.38;;;1.65;;
2488;SDS011;1255;48.716;9.124;2023-11-21T00:13:31;2.83;;;1.95;;
2488;SDS011;1255;48.716;9.124;2023-11-21T04:32:14;1.17;;;1.08;;
2488;SDS011;1255;48.716;9.124;2023-11-21T04:34:41;1.48;;;1.08;;
2488;SDS011;1255;48.716;9.124;2023-11-21T04:37:10;2.08;;;1.27;;
2488;SDS011;1255;48.716;9.124;2023-11-21T04:39:39;3.00;;;0.90;;
2488;SDS011;1255;48.716;9.124;2023-11-21T04:42:05;1.67;;;0.80;;
2488;SDS011;1255;48.716;9.124;2023-11-21T04:44:38;1.50;;;0.70;;
2488;SDS011;1255;48.716;9.124;2023-11-21T04:47:06;3.33;;;1.02;;
2488;SDS011;1255;48.716;9.124;2023-11-21T04:55:31;1.00;;;0.90;;
2488;SDS011;1255;48.716;9.124;2023-11-21T05:01:34;1.95;;;1.08;;
2488;SDS011;1255;48.716;9.124;2023-11-21T05:04:01;1.10;;;1.00;;
2488;SDS011;1255;48.716;9.124;2023-11-21T05:06:29;1.10;;;0.80;;
2488;SDS011;1255;48.716;9.124;2023-11-21T05:08:57;1.85;;;1.30;;
2488;SDS011;1255;48.716;9.124;2023-11-21T05:11:24;0.82;;;0.75;;
2488;SDS011;1255;48.716;9.124;2023-11-21T05:13:51;0.90;;;0.77;;
2488;SDS011;1255;48.716;9.124;2023-11-21T05:16:18;0.90;;;0.75;;
2488;SDS011;1255;48.716;9.124;2023-11-21T05:18:45;1.15;;;0.90;;
2488;SDS011;1255;48.716;9.124;2023-11-21T05:21:12;1.30;;;1.20;;
2488;SDS011;1255;48.716;9.124;2023-11-21T05:23:41;1.55;;;1.10;;
2488;SDS011;1255;48.716;9.124;2023-11-21T05:26:08;0.80;;;0.80;;
2488;SDS011;1255;48.716;9.124;2023-11-21T05:28:34;1.00;;;0.90;;
2488;SDS011;1255;48.716;9.124;2023-11-21T05:31:01;1.30;;;1.05;;
2488;SDS011;1255;48.716;9.124;2023-11-21T05:33:28;0.80;;;0.77;;
2488;SDS011;1255;48.716;9.124;2023-11-21T05:35:55;0.80;;;0.70;;
2488;SDS011;1255;48.716;9.124;2023-11-21T05:38:21;1.10;;;0.98;;
2488;SDS011;1255;48.716;9.124;2023-11-21T05:40:49;1.00;;;0.90;;
2488;SDS011;1255;48.716;9.124;2023-11-21T05:43:16;1.48;;;1.20;;
2488;SDS011;1255;48.716;9.124;2023-11-21T05:45:43;1.15;;;0.82;;
2488;SDS011;1255;48.716;9.124;2023-11-21T05:48:09;1.00;;;0.90;;
2488;SDS011;1255;48.716;9.124;2023-11-21T05:50:36;0.80;;;0.80;;
2488;SDS011;1255;48.716;9.124;2023-11-21T05:53:03;0.93;;;0.82;;
2488;SDS011;1255;48.716;9.124;2023-11-21T05:55:30;0.80;;;0.80;;
2488;SDS011;1255;48.716;9.124;2023-11-21T05:57:58;1.02;;;0.90;;
2488;SDS011;1255;48.716;9.124;2023-11-21T06:00:25;0.70;;;0.70;;
2488;SDS011;1255;48.716;9.124;2023-11-21T06:02:53;1.15;;;1.05;;
2488;SDS011;1255;48.716;9.124;2023-11-21T06:05:20;1.27;;;1.13;;
2488;SDS011;1255;48.716;9.124;2023-11-21T06:07:49;1.05;;;0.95;;
2488;SDS011;1255;48.716;9.124;2023-11-21T06:10:16;1.15;;;1.05;;
2488;SDS011;1255;48.716;9.124;2023-11-21T06:12:44;3.80;;;1.55;;
2488;SDS011;1255;48.716;9.124;2023-11-21T06:15:12;1.13;;;0.90;;
2488;SDS011;1255;48.716;9.124;2023-11-21T06:17:39;1.77;;;0.80;;
2488;SDS011;1255;48.716;9.124;2023-11-21T06:20:07;1.27;;;1.17;;
2488;SDS011;1255;48.716;9.124;2023-11-21T06:22:35;1.27;;;1.15;;
2488;SDS011;1255;48.716;9.124;2023-11-21T06:25:02;1.30;;;1.20;;
2488;SDS011;1255;48.716;9.124;2023-11-21T06:27:30;2.10;;;1.30;;
2488;SDS011;1255;48.716;9.124;2023-11-21T06:29:57;1.60;;;1.05;;
2488;SDS011;1255;48.716;9.124;2023-11-21T06:32:25;1.02;;;0.90;;
2488;SDS011;1255;48.716;9.124;2023-11-21T06:34:54;1.27;;;1.17;;
2488;SDS011;1255;48.716;9.124;2023-11-21T06:37:21;1.20;;;1.10;;
2488;SDS011;1255;48.716;9.124;2023-11-21T06:39:48;2.08;;;0.95;;
2488;SDS011;1255;48.716;9.124;2023-11-21T06:42:17;1.02;;;0.93;;
2488;SDS011;1255;48.716;9.124;2023-11-21T06:44:44;1.02;;;0.93;;
2488;SDS011;1255;48.716;9.124;2023-11-21T06:47:11;1.13;;;0.90;;
2488;SDS011;1255;48.716;9.124;2023-11-21T06:49:39;1.65;;;1.15;;
2488;SDS011;1255;48.716;9.124;2023-11-21T06:52:07;1.40;;;1.30;;
2488;SDS011;1255;48.716;9.124;2023-11-21T06:54:34;1.10;;;1.00;;
2488;SDS011;1255;48.716;9.124;2023-11-21T06:57:01;1.20;;;0.80;;
2488;SDS011;1255;48.716;9.124;2023-11-21T06:59:28;1.20;;;0.90;;
2488;SDS011;1255;48.716;9.124;2023-11-21T07:01:54;1.00;;;0.90;;
2488;SDS011;1255;48.716;9.124;2023-11-21T07:04:21;2.85;;;1.40;;
2488;SDS011;1255;48.716;9.124;2023-11-21T07:06:50;1.10;;;0.90;;
2488;SDS011;1255;48.716;9.124;2023-11-21T07:09:17;1.00;;;0.90;;
2488;SDS011;1255;48.716;9.124;2023-11-21T07:11:47;1.00;;;0.90;;
2488;SDS011;1255;48.716;9.124;2023-11-21T07:14:13;2.47;;;0.90;;
2488;SDS011;1255;48.716;9.124;2023-11-21T07:16:40;1.02;;;0.93;;
2488;SDS011;1255;48.716;9.124;2023-11-21T07:19:07;3.20;;;1.50;;
2488;SDS011;1255;48.716;9.124;2023-11-21T07:21:34;1.10;;;1.00;;
2488;SDS011;1255;48.716;9.124;2023-11-21T07:24:03;3.30;;;1.30;;
2488;SDS011;1255;48.716;9.124;2023-11-21T07:26:31;1.55;;;1.30;;
2488;SDS011;1255;48.716;9.124;2023-11-21T07:28:59;1.08;;;0.98;;
2488;SDS011;1255;48.716;9.124;2023-11-21T07:31:26;1.77;;;1.23;;
2488;SDS011;1255;48.716;9.124;2023-11-21T07:33:54;1.40;;;1.20;;
2488;SDS011;1255;48.716;9.124;2023-11-21T07:36:22;1.77;;;1.20;;
2488;SDS011;1255;48.716;9.124;2023-11-21T07:38:49;1.30;;;1.20;;
2488;SDS011;1255;48.716;9.124;2023-11-21T07:41:18;3.63;;;1.33;;
2488;SDS011;1255;48.716;9.124;2023-11-21T07:43:46;2.08;;;1.25;;
2488;SDS011;1255;48.716;9.124;2023-11-21T07:46:13;1.27;;;1.10;;
2488;SDS011;1255;48.716;9.124;2023-11-21T07:48:40;1.23;;;1.08;;
2488;SDS011;1255;48.716;9.124;2023-11-21T07:51:08;1.30;;;1.20;;
2488;SDS011;1255;48.716;9.124;2023-11-21T07:53:35;3.55;;;1.05;;
2488;SDS011;1255;48.716;9.124;2023-11-21T07:56:02;1.33;;;1.23;;
2488;SDS011;1255;48.716;9.124;2023-11-21T07:58:32;3.05;;;1.58;;
2488;SDS011;1255;48.716;9.124;2023-11-21T08:01:01;1.45;;;1.25;;
2488;SDS011;1255;48.716;9.124;2023-11-21T08:03:29;1.40;;;1.27;;
2488;SDS011;1255;48.716;9.124;2023-11-21T08:05:56;2.88;;;1.73;;
2488;SDS011;1255;48.716;9.124;2023-11-21T08:08:23;2.55;;;1.42;;
2488;SDS011;1255;48.716;9.124;2023-11-21T08:10:49;1.48;;;1.30;;
2488;SDS011;1255;48.716;9.124;2023-11-21T08:13:21;1.50;;;1.40;;
2488;SDS011;1255;48.716;9.124;2023-11-21T08:15:49;1.15;;;1.05;;
2488;SDS011;1255;48.716;9.124;2023-11-21T08:18:16;2.30;;;1.20;;
2488;SDS011;1255;48.716;9.124;2023-11-21T08:20:43;2.13;;;1.70;;
2488;SDS011;1255;48.716;9.124;2023-11-21T08:23:12;1.42;;;1.30;;
2488;SDS011;1255;48.716;9.124;2023-11-21T08:25:41;2.85;;;1.10;;
2488;SDS011;1255;48.716;9.124;2023-11-21T08:28:08;2.72;;;1.42;;
2488;SDS011;1255;48.716;9.124;2023-11-21T08:30:35;1.98;;;1.60;;
2488;SDS011;1255;48.716;9.124;2023-11-21T08:33:03;1.80;;;1.40;;
2488;SDS011;1255;48.716;9.124;2023-11-21T08:35:30;1.48;;;1.25;;
2488;SDS011;1255;48.716;9.124;2023-11-21T08:37:57;1.10;;;1.00;;
2488;SDS011;1255;48.716;9.124;2023-11-21T08:40:24;1.33;;;1.20;;
2488;SDS011;1255;48.716;9.124;2023-11-21T08:42:51;1.33;;;1.23;;
2488;SDS011;1255;48.716;9.124;2023-11-21T08:45:18;1.13;;;0.93;;
2488;SDS011;1255;48.716;9.124;2023-11-21T08:47:45;1.63;;;1.20;;
2488;SDS011;1255;48.716;9.124;2023-11-21T08:50:13;2.00;;;1.08;;
2488;SDS011;1255;48.716;9.124;2023-11-21T08:52:40;1.90;;;1.25;;
2488;SDS011;1255;48.716;9.124;2023-11-21T08:55:08;1.75;;;1.40;;
2488;SDS011;1255;48.716;9.124;2023-11-21T08:57:37;1.10;;;1.00;;
2488;SDS011;1255;48.716;9.124;2023-11-21T09:00:05;1.20;;;0.93;;
2488;SDS011;1255;48.716;9.124;2023-11-21T09:02:36;3.30;;;1.30;;
2488;SDS011;1255;48.716;9.124;2023-11-21T09:05:03;2.17;;;0.80;;
2488;SDS011;1255;48.716;9.124;2023-11-21T09:07:32;1.35;;;1.05;;
2488;SDS011;1255;48.716;9.124;2023-11-21T09:09:59;0.85;;;0.80;;
2488;SDS011;1255;48.716;9.124;2023-11-21T09:12:25;1.55;;;1.10;;
2488;SDS011;1255;48.716;9.124;2023-11-21T09:14:52;1.38;;;0.90;;
2488;SDS011;1255;48.716;9.124;2023-11-21T09:17:19;1.15;;;0.95;;
2488;SDS011;1255;48.716;9.124;2023-11-21T09:19:46;1.75;;;1.33;;
2488;SDS011;1255;48.716;9.124;2023-11-21T09:22:16;1.05;;;0.95;;
2488;SDS011;1255;48.716;9.124;2023-11-21T09:24:44;1.33;;;1.05;;
2488;SDS011;1255;48.716;9.124;2023-11-21T09:27:11;2.65;;;1.20;;
2488;SDS011;1255;48.716;9.124;2023-11-21T09:29:37;1.27;;;1.17;;
2488;SDS011;1255;48.716;9.124;2023-11-21T09:32:04;8.43;;;1.23;;
2488;SDS011;1255;48.716;9.124;2023-11-21T09:34:33;1.10;;;1.00;;
2488;SDS011;1255;48.716;9.124;2023-11-21T09:37:01;1.15;;;1.05;;
2488;SDS011;1255;48.716;9.124;2023-11-21T09:39:30;1.30;;;1.17;;
2488;SDS011;1255;48.716;9.124;2023-11-21T09:42:04;1.20;;;1.00;;
2488;SDS011;1255;48.716;9.124;2023-11-21T09:44:43;1.50;;;1.00;;
2488;SDS011;1255;48.716;9.124;2023-11-21T09:47:14;2.55;;;1.10;;
2488;SDS011;1255;48.716;9.124;2023-11-21T09:49:42;0.90;;;0.80;;
2488;SDS011;1255;48.716;9.124;2023-11-21T09:52:15;2.13;;;1.00;;
2488;SDS011;1255;48.716;9.124;2023-11-21T09:54:50;1.25;;;0.90;;
2488;SDS011;1255;48.716;9.124;2023-11-21T09:57:19;1.00;;;0.80;;
2488;SDS011;1255;48.716;9.124;2023-11-21T09:59:48;1.20;;;0.90;;
2488;SDS011;1255;48.716;9.124;2023-11-21T10:02:20;0.80;;;0.70;;
2488;SDS011;1255;48.716;9.124;2023-11-21T10:04:51;0.90;;;0.70;;
2488;SDS011;1255;48.716;9.124;2023-11-21T10:07:19;0.80;;;0.80;;
2488;SDS011;1255;48.716;9.124;2023-11-21T10:09:47;0.90;;;0.80;;
2488;SDS011;1255;48.716;9.124;2023-11-21T10:12:14;1.20;;;0.77;;
2488;SDS011;1255;48.716;9.124;2023-11-21T10:14:43;1.00;;;0.90;;
2488;SDS011;1255;48.716;9.124;2023-11-21T10:17:14;1.40;;;1.20;;
2488;SDS011;1255;48.716;9.124;2023-11-21T10:19:43;0.95;;;0.80;;
2488;SDS011;1255;48.716;9.124;2023-11-21T10:22:13;2.65;;;1.10;;
2488;SDS011;1255;48.716;9.124;2023-11-21T10:24:41;3.45;;;1.00;;
2488;SDS011;1255;48.716;9.124;2023-11-21T10:27:08;0.90;;;0.80;;
2488;SDS011;1255;48.716;9.124;2023-11-21T10:29:35;2.30;;;1.05;;
2488;SDS011;1255;48.716;9.124;2023-11-21T10:32:03;1.00;;;0.90;;
2488;SDS011;1255;48.716;9.124;2023-11-21T10:34:31;1.38;;;1.23;;
2488;SDS011;1255;48.716;9.124;2023-11-21T10:36:59;1.35;;;0.93;;
2488;SDS011;1255;48.716;9.124;2023-11-21T10:39:37;1.00;;;0.90;;
2488;SDS011;1255;48.716;9.124;2023-11-21T10:42:07;1.40;;;1.10;;
2488;SDS011;1255;48.716;9.124;2023-11-21T10:44:35;1.70;;;1.10;;
2488;SDS011;1255;48.716;9.124;2023-11-21T10:47:04;1.17;;;1.02;;
2488;SDS011;1255;48.716;9.124;2023-11-21T10:49:31;1.38;;;0.85;;
2488;SDS011;1255;48.716;9.124;2023-11-21T10:51:57;1.55;;;1.27;;
2488;SDS011;1255;48.716;9.124;2023-11-21T10:54:25;1.00;;;0.90;;
2488;SDS011;1255;48.716;9.124;2023-11-21T10:56:53;0.90;;;0.70;;
2488;SDS011;1255;48.716;9.124;2023-11-21T10:59:23;1.10;;;0.80;;
2488;SDS011;1255;48.716;9.124;2023-11-21T11:01:54;4.45;;;1.00;;
2488;SDS011;1255;48.716;9.124;2023-11-21T11:04:27;1.30;;;1.13;;
2488;SDS011;1255;48.716;9.124;2023-11-21T11:06:54;0.70;;;0.70;;
2488;SDS011;1255;48.716;9.124;2023-11-21T11:09:23;0.90;;;0.80;;
2488;SDS011;1255;48.716;9.124;2023-11-21T11:11:50;2.13;;;0.90;;
2488;SDS011;1255;48.716;9.124;2023-11-21T11:14:19;1.27;;;1.17;;
2488;SDS011;1255;48.716;9.124;2023-11-21T11:16:50;1.80;;;0.95;;
2488;SDS011;1255;48.716;9.124;2023-11-21T11:19:20;2.00;;;1.02;;
2488;SDS011;1255;48.716;9.124;2023-11-21T11:21:50;1.30;;;1.10;;
2488;SDS011;1255;48.716;9.124;2023-11-21T11:27:11;1.20;;;1.10;;
2488;SDS011;1255;48.716;9.124;2023-11-21T11:29:49;1.02;;;0.93;;
2488;SDS011;1255;48.716;9.124;2023-11-21T11:32:30;1.00;;;0.90;;
2488;SDS011;1255;48.716;9.124;2023-11-21T11:35:06;4.00;;;1.10;;
2488;SDS011;1255;48.716;9.124;2023-11-21T11:37:43;1.20;;;1.10;;
2488;SDS011;1255;48.716;9.124;2023-11-21T11:40:10;1.67;;;1.10;;
2488;SDS011;1255;48.716;9.124;2023-11-21T11:42:38;2.15;;;1.60;;
2488;SDS011;1255;48.716;9.124;2023-11-21T11:45:17;2.00;;;1.67;;
2488;SDS011;1255;48.716;9.124;2023-11-21T11:47:44;1.45;;;1.35;;
2488;SDS011;1255;48.716;9.124;2023-11-21T11:50:14;2.00;;;1.63;;
2488;SDS011;1255;48.716;9.124;2023-11-21T11:52:44;2.72;;;1.50;;
2488;SDS011;1255;48.716;9.124;2023-11-21T11:55:13;1.83;;;1.30;;
2488;SDS011;1255;48.716;9.124;2023-11-21T11:57:43;1.58;;;1.48;;
2488;SDS011;1255;48.716;9.124;2023-11-21T12:00:13;2.28;;;1.40;;
2488;SDS011;1255;48.716;9.124;2023-11-21T12:02:50;1.95;;;1.35;;
2488;SDS011;1255;48.716;9.124;2023-11-21T12:05:18;1.02;;;0.93;;
2488;SDS011;1255;48.716;9.124;2023-11-21T12:07:48;1.17;;;1.00;;
2488;SDS011;1255;48.716;9.124;2023-11-21T12:10:18;1.23;;;0.90;;
2488;SDS011;1255;48.716;9.124;2023-11-21T12:12:46;1.25;;;1.15;;
2488;SDS011;1255;48.716;9.124;2023-11-21T12:15:14;2.28;;;1.48;;
2488;SDS011;1255;48.716;9.124;2023-11-21T12:17:41;1.13;;;1.00;;
2488;SDS011;1255;48.716;9.124;2023-11-21T12:20:09;1.10;;;1.00;;
2488;SDS011;1255;48.716;9.124;2023-11-21T12:22:43;1.00;;;0.90;;
2488;SDS011;1255;48.716;9.124;2023-11-21T12:25:15;1.35;;;1.17;;
2488;SDS011;1255;48.716;9.124;2023-11-21T12:27:43;1.00;;;0.90;;
2488;SDS011;1255;48.716;9.124;2023-11-21T12:30:12;1.15;;;0.98;;
2488;SDS011;1255;48.716;9.124;2023-11-21T12:32:41;1.10;;;1.00;;
2488;SDS011;1255;48.716;9.124;2023-11-21T12:35:11;1.42;;;1.33;;
2488;SDS011;1255;48.716;9.124;2023-11-21T12:37:40;1.20;;;1.10;;
2488;SDS011;1255;48.716;9.124;2023-11-21T12:40:09;2.95;;;1.20;;
2488;SDS011;1255;48.716;9.124;2023-11-21T12:42:41;1.20;;;1.10;;
2488;SDS011;1255;48.716;9.124;2023-11-21T12:45:10;1.38;;;1.27;;
2488;SDS011;1255;48.716;9.124;2023-11-21T12:47:48;1.13;;;1.02;;
2488;SDS011;1255;48.716;9.124;2023-11-21T12:50:18;2.25;;;1.15;;
2488;SDS011;1255;48.716;9.124;2023-11-21T12:52:58;1.63;;;1.40;;
2488;SDS011;1255;48.716;9.124;2023-11-21T12:55:29;2.72;;;1.50;;
2488;SDS011;1255;48.716;9.124;2023-11-21T12:58:04;1.10;;;1.00;;
2488;SDS011;1255;48.716;9.124;2023-11-21T13:00:35;1.00;;;0.90;;
2488;SDS011;1255;48.716;9.124;2023-11-21T13:03:04;0.90;;;0.70;;
2488;SDS011;1255;48.716;9.124;2023-11-21T13:05:35;1.27;;;1.00;;
2488;SDS011;1255;48.716;9.124;2023-11-21T13:08:05;1.10;;;1.00;;
2488;SDS011;1255;48.716;9.124;2023-11-21T13:10:35;1.42;;;1.00;;
2488;SDS011;1255;48.716;9.124;2023-11-21T13:13:06;1.15;;;1.05;;
2488;SDS011;1255;48.716;9.124;2023-11-21T13:15:35;1.70;;;1.10;;
2488;SDS011;1255;48.716;9.124;2023-11-21T13:18:05;1.27;;;1.13;;
2488;SDS011;1255;48.716;9.124;2023-11-21T13:20:36;1.35;;;1.25;;
2488;SDS011;1255;48.716;9.124;2023-11-21T13:23:07;1.52;;;1.42;;
2488;SDS011;1255;48.716;9.124;2023-11-21T13:25:37;1.63;;;1.00;;
2488;SDS011;1255;48.716;9.124;2023-11-21T13:28:07;1.20;;;1.02;;
2488;SDS011;1255;48.716;9.124;2023-11-21T13:30:35;1.40;;;1.30;;
2488;SDS011;1255;48.716;9.124;2023-11-21T13:33:05;1.30;;;1.20;;
2488;SDS011;1255;48.716;9.124;2023-11-21T13:35:33;1.25;;;1.15;;
2488;SDS011;1255;48.716;9.124;2023-11-21T13:38:03;1.55;;;1.33;;
2488;SDS011;1255;48.716;9.124;2023-11-21T13:40:31;1.10;;;0.90;;
2488;SDS011;1255;48.716;9.124;2023-11-21T13:43:00;1.30;;;1.20;;
2488;SDS011;1255;48.716;9.124;2023-11-21T13:45:30;1.00;;;0.80;;
2488;SDS011;1255;48.716;9.124;2023-11-21T13:47:57;1.35;;;0.82;;
2488;SDS011;1255;48.716;9.124;2023-11-21T13:50:25;0.90;;;0.80;;
2488;SDS011;1255;48.716;9.124;2023-11-21T13:52:58;0.90;;;0.80;;
2488;SDS011;1255;48.716;9.124;2023-11-21T13:55:29;0.80;;;0.73;;
2488;SDS011;1255;48.716;9.124;2023-11-21T13:57:56;1.00;;;0.90;;
2488;SDS011;1255;48.716;9.124;2023-11-21T14:00:24;0.95;;;0.85;;
2488;SDS011;1255;48.716;9.124;2023-11-21T14:03:08;1.02;;;0.85;;
2488;SDS011;1255;48.716;9.124;2023-11-21T14:05:42;0.80;;;0.70;;
2488;SDS011;1255;48.716;9.124;2023-11-21T14:08:11;1.00;;;0.80;;
2488;SDS011;1255;48.716;9.124;2023-11-21T14:10:41;0.88;;;0.73;;
2488;SDS011;1255;48.716;9.124;2023-11-21T14:13:09;1.73;;;0.88;;
2488;SDS011;1255;48.716;9.124;2023-11-21T14:15:37;1.35;;;0.80;;
2488;SDS011;1255;48.716;9.124;2023-11-21T14:18:09;1.90;;;0.90;;
2488;SDS011;1255;48.716;9.124;2023-11-21T14:20:37;1.40;;;1.20;;
2488;SDS011;1255;48.716;9.124;2023-11-21T14:23:05;1.30;;;1.10;;
2488;SDS011;1255;48.716;9.124;2023-11-21T14:25:32;1.00;;;0.90;;
2488;SDS011;1255;48.716;9.124;2023-11-21T14:27:59;1.33;;;1.20;;
2488;SDS011;1255;48.716;9.124;2023-11-21T14:30:26;2.60;;;1.40;;
2488;SDS011;1255;48.716;9.124;2023-11-21T14:32:55;2.10;;;1.20;;
2488;SDS011;1255;48.716;9.124;2023-11-21T14:35:23;1.23;;;1.13;;
2488;SDS011;1255;48.716;9.124;2023-11-21T14:37:49;1.27;;;1.17;;
2488;SDS011;1255;48.716;9.124;2023-11-21T14:40:16;1.15;;;1.05;;
2488;SDS011;1255;48.716;9.124;2023-11-21T14:42:46;1.40;;;1.30;;
2488;SDS011;1255;48.716;9.124;2023-11-21T14:45:13;1.58;;;1.30;;
2488;SDS011;1255;48.716;9.124;2023-11-21T14:47:44;1.63;;;1.33;;
2488;SDS011;1255;48.716;9.124;2023-11-21T14:50:19;1.73;;;1.55;;
2488;SDS011;1255;48.716;9.124;2023-11-21T14:53:16;1.20;;;1.10;;
2488;SDS011;1255;48.716;9.124;2023-11-21T14:55:50;1.52;;;1.40;;
2488;SDS011;1255;48.716;9.124;2023-11-21T14:58:22;2.45;;;1.30;;
2488;SDS011;1255;48.716;9.124;2023-11-21T15:00:52;1.67;;;1.50;;
2488;SDS011;1255;48.716;9.124;2023-11-21T15:03:23;2.72;;;1.63;;
2488;SDS011;1255;48.716;9.124;2023-11-21T15:06:08;1.98;;;1.45;;
2488;SDS011;1255;48.716;9.124;2023-11-21T15:08:50;1.45;;;1.23;;
2488;SDS011;1255;48.716;9.124;2023-11-21T15:11:22;1.63;;;1.33;;
2488;SDS011;1255;48.716;9.124;2023-11-21T15:13:55;1.52;;;1.42;;
2488;SDS011;1255;48.716;9.124;2023-11-21T15:16:22;1.83;;;1.20;;
2488;SDS011;1255;48.716;9.124;2023-11-21T15:18:48;6.70;;;2.08;;
2488;SDS011;1255;48.716;9.124;2023-11-21T15:21:15;1.65;;;1.55;;
2488;SDS011;1255;48.716;9.124;2023-11-21T15:23:42;1.00;;;0.90;;
2488;SDS011;1255;48.716;9.124;2023-11-21T15:26:10;1.52;;;1.30;;
2488;SDS011;1255;48.716;9.124;2023-11-21T15:28:36;1.75;;;1.40;;
2488;SDS011;1255;48.716;9.124;2023-11-21T15:31:03;2.00;;;1.80;;
2488;SDS011;1255;48.716;9.124;2023-11-21T15:33:30;1.65;;;1.50;;
2488;SDS011;1255;48.716;9.124;2023-11-21T15:35:57;2.13;;;1.50;;
2488;SDS011;1255;48.716;9.124;2023-11-21T15:38:24;2.55;;;2.05;;
2488;SDS011;1255;48.716;9.124;2023-11-21T15:40:50;2.53;;;1.90;;
2488;SDS011;1255;48.716;9.124;2023-11-21T15:43:19;2.97;;;1.83;;
2488;SDS011;1255;48.716;9.124;2023-11-21T15:45:46;1.73;;;1.60;;
2488;SDS011;1255;48.716;9.124;2023-11-21T15:48:12;2.10;;;1.90;;
2488;SDS011;1255;48.716;9.124;2023-11-21T15:50:41;2.25;;;2.00;;
2488;SDS011;1255;48.716;9.124;2023-11-21T15:53:08;3.55;;;2.45;;
2488;SDS011;1255;48.716;9.124;2023-11-21T15:55:34;3.15;;;2.25;;
2488;SDS011;1255;48.716;9.124;2023-11-21T15:58:07;4.47;;;4.07;;
2488;SDS011;1255;48.716;9.124;2023-11-21T16:00:35;7.38;;;4.07;;
2488;SDS011;1255;48.716;9.124;2023-11-21T16:03:02;4.20;;;3.10;;
2488;SDS011;1255;48.716;9.124;2023-11-21T16:05:29;3.08;;;2.75;;
2488;SDS011;1255;48.716;9.124;2023-11-21T16:07:56;3.15;;;2.85;;
2488;SDS011;1255;48.716;9.124;2023-11-21T16:10:22;4.32;;;2.53;;
2488;SDS011;1255;48.716;9.124;2023-11-21T16:12:49;4.40;;;2.90;;
2488;SDS011;1255;48.716;9.124;2023-11-21T16:15:16;3.55;;;3.25;;
2488;SDS011;1255;48.716;9.124;2023-11-21T16:17:44;3.60;;;3.30;;
2488;SDS011;1255;48.716;9.124;2023-11-21T16:20:13;3.70;;;3.40;;
2488;SDS011;1255;48.716;9.124;2023-11-21T16:22:40;3.65;;;3.35;;
2488;SDS011;1255;48.716;9.124;2023-11-21T16:25:10;2.42;;;2.22;;
2488;SDS011;1255;48.716;9.124;2023-11-21T16:27:39;2.97;;;2.60;;
2488;SDS011;1255;48.716;9.124;2023-11-21T16:30:07;3.50;;;2.95;;
2488;SDS011;1255;48.716;9.124;2023-11-21T16:32:35;2.97;;;2.67;;
2488;SDS011;1255;48.716;9.124;2023-11-21T16:35:03;3.22;;;2.50;;
2488;SDS011;1255;48.716;9.124;2023-11-21T16:37:31;5.78;;;2.70;;
2488;SDS011;1255;48.716;9.124;2023-11-21T16:39:58;3.45;;;3.10;;
2488;SDS011;1255;48.716;9.124;2023-11-21T16:42:24;4.45;;;4.05;;
2488;SDS011;1255;48.716;9.124;2023-11-21T16:44:53;6.82;;;5.50;;
2488;SDS011;1255;48.716;9.124;2023-11-21T16:47:20;5.53;;;3.72;;
2488;SDS011;1255;48.716;9.124;2023-11-21T16:49:48;5.38;;;4.05;;
2488;SDS011;1255;48.716;9.124;2023-11-21T16:52:16;3.47;;;3.17;;
2488;SDS011;1255;48.716;9.124;2023-11-21T16:54:47;3.58;;;3.28;;
2488;SDS011;1255;48.716;9.124;2023-11-21T16:57:14;5.03;;;3.75;;
2488;SDS011;1255;48.716;9.124;2023-11-21T16:59:40;6.85;;;4.10;;
2488;SDS011;1255;48.716;9.124;2023-11-21T17:02:07;5.68;;;3.85;;
2488;SDS011;1255;48.716;9.124;2023-11-21T17:04:35;5.70;;;3.80;;
2488;SDS011;1255;48.716;9.124;2023-11-21T17:07:06;4.75;;;3.53;;
2488;SDS011;1255;48.716;9.124;2023-11-21T17:09:34;4.00;;;3.55;;
2488;SDS011;1255;48.716;9.124;2023-11-21T17:12:01;5.50;;;3.60;;
2488;SDS011;1255;48.716;9.124;2023-11-21T17:14:30;3.95;;;3.10;;
2488;SDS011;1255;48.716;9.124;2023-11-21T17:16:58;3.85;;;3.15;;
2488;SDS011;1255;48.716;9.124;2023-11-21T17:19:25;5.65;;;3.80;;
2488;SDS011;1255;48.716;9.124;2023-11-21T17:21:56;5.20;;;3.50;;
2488;SDS011;1255;48.716;9.124;2023-11-21T17:24:23;5.43;;;4.03;;
2488;SDS011;1255;48.716;9.124;2023-11-21T17:26:51;4.07;;;3.55;;
2488;SDS011;1255;48.716;9.124;2023-11-21T17:29:18;4.70;;;3.30;;
2488;SDS011;1255;48.716;9.124;2023-11-21T17:31:45;5.22;;;3.90;;
2488;SDS011;1255;48.716;9.124;2023-11-21T17:34:12;6.10;;;4.70;;
2488;SDS011;1255;48.716;9.124;2023-11-21T17:36:44;4.60;;;4.15;;
2488;SDS011;1255;48.716;9.124;2023-11-21T17:39:10;4.40;;;3.75;;
2488;SDS011;1255;48.716;9.124;2023-11-21T17:41:38;6.03;;;4.30;;
2488;SDS011;1255;48.716;9.124;2023-11-21T17:44:06;4.97;;;4.20;;
2488;SDS011;1255;48.716;9.124;2023-11-21T17:46:33;6.43;;;4.47;;
2488;SDS011;1255;48.716;9.124;2023-11-21T17:48:59;6.10;;;5.15;;
2488;SDS011;1255;48.716;9.124;2023-11-21T17:51:26;7.68;;;4.45;;
2488;SDS011;1255;48.716;9.124;2023-11-21T17:53:53;6.38;;;5.00;;
2488;SDS011;1255;48.716;9.124;2023-11-21T17:56:25;7.97;;;4.70;;
2488;SDS011;1255;48.716;9.124;2023-11-21T17:58:53;5.32;;;4.25;;
2488;SDS011;1255;48.716;9.124;2023-11-21T18:01:22;9.10;;;4.72;;
2488;SDS011;1255;48.716;9.124;2023-11-21T18:03:55;7.38;;;4.88;;
2488;SDS011;1255;48.716;9.124;2023-11-21T18:06:23;7.68;;;5.13;;
2488;SDS011;1255;48.716;9.124;2023-11-21T18:08:50;9.43;;;5.63;;
2488;SDS011;1255;48.716;9.124;2023-11-21T18:11:17;8.45;;;5.38;;
2488;SDS011;1255;48.716;9.124;2023-11-21T18:13:43;6.97;;;4.45;;
2488;SDS011;1255;48.716;9.124;2023-11-21T18:16:10;6.45;;;4.38;;
2488;SDS011;1255;48.716;9.124;2023-11-21T18:18:39;6.60;;;4.40;;
2488;SDS011;1255;48.716;9.124;2023-11-21T18:21:05;4.53;;;3.55;;
2488;SDS011;1255;48.716;9.124;2023-11-21T18:23:32;5.20;;;3.92;;
2488;SDS011;1255;48.716;9.124;2023-11-21T18:25:59;5.57;;;4.10;;
2488;SDS011;1255;48.716;9.124;2023-11-21T18:28:26;13.13;;;4.47;;
2488;SDS011;1255;48.716;9.124;2023-11-21T18:30:53;4.82;;;4.22;;
2488;SDS011;1255;48.716;9.124;2023-11-21T18:33:20;5.95;;;3.88;;
2488;SDS011;1255;48.716;9.124;2023-11-21T18:35:49;4.50;;;3.63;;
2488;SDS011;1255;48.716;9.124;2023-11-21T18:38:15;5.95;;;4.38;;
2488;SDS011;1255;48.716;9.124;2023-11-21T18:40:42;5.70;;;4.53;;
2488;SDS011;1255;48.716;9.124;2023-11-21T18:43:09;5.68;;;3.80;;
2488;SDS011;1255;48.716;9.124;2023-11-21T18:45:37;6.05;;;4.40;;
2488;SDS011;1255;48.716;9.124;2023-11-21T18:48:04;4.55;;;3.45;;
2488;SDS011;1255;48.716;9.124;2023-11-21T18:50:31;5.10;;;3.95;;
2488;SDS011;1255;48.716;9.124;2023-11-21T18:52:59;4.28;;;3.30;;
2488;SDS011;1255;48.716;9.124;2023-11-21T18:55:26;6.75;;;4.07;;
2488;SDS011;1255;48.716;9.124;2023-11-21T18:57:53;3.70;;;3.15;;
2488;SDS011;1255;48.716;9.124;2023-11-21T19:00:21;4.25;;;2.88;;
2488;SDS011;1255;48.716;9.124;2023-11-21T19:02:49;4.10;;;3.70;;
2488;SDS011;1255;48.716;9.124;2023-11-21T19:05:16;5.53;;;4.07;;
2488;SDS011;1255;48.716;9.124;2023-11-21T19:07:43;4.97;;;4.03;;
2488;SDS011;1255;48.716;9.124;2023-11-21T19:10:12;5.05;;;3.92;;
2488;SDS011;1255;48.716;9.124;2023-11-21T19:12:39;4.88;;;3.50;;
2488;SDS011;1255;48.716;9.124;2023-11-21T19:15:06;4.63;;;3.60;;
2488;SDS011;1255;48.716;9.124;2023-11-21T19:17:34;9.23;;;4.18;;
2488;SDS011;1255;48.716;9.124;2023-11-21T19:20:06;5.25;;;3.83;;
2488;SDS011;1255;48.716;9.124;2023-11-21T19:22:34;5.88;;;3.28;;
2488;SDS011;1255;48.716;9.124;2023-11-21T19:25:03;5.68;;;4.45;;
2488;SDS011;1255;48.716;9.124;2023-11-21T19:27:32;7.53;;;3.90;;
2488;SDS011;1255;48.716;9.124;2023-11-21T19:30:00;5.63;;;4.25;;
2488;SDS011;1255;48.716;9.124;2023-11-21T19:32:29;4.82;;;3.47;;
2488;SDS011;1255;48.716;9.124;2023-11-21T19:34:58;5.43;;;4.20;;
2488;SDS011;1255;48.716;9.124;2023-11-21T19:37:25;5.80;;;4.20;;
2488;SDS011;1255;48.716;9.124;2023-11-21T19:39:52;4.93;;;3.20;;
2488;SDS011;1255;48.716;9.124;2023-11-21T19:42:19;5.88;;;3.55;;
2488;SDS011;1255;48.716;9.124;2023-11-21T19:44:47;5.57;;;3.60;;
2488;SDS011;1255;48.716;9.124;2023-11-21T19:47:13;4.47;;;3.25;;
2488;SDS011;1255;48.716;9.124;2023-11-21T19:49:40;5.13;;;3.78;;
2488;SDS011;1255;48.716;9.124;2023-11-21T19:52:07;6.38;;;4.65;;